sensor_id;sensor_type;location;lat;lon;timestamp;pressure;altitude;pressure_sealevel;temperature;humidity
21361;BME280;10839;43.206;23.550;2024-02-23T00:01:32;96708.97;;;12.38;50.32
21361;BME280;10839;43.206;23.550;2024-02-23T00:03:57;96720.00;;;12.68;50.16
21361;BME280;10839;43.206;23.550;2024-02-23T00:06:23;96715.66;;;12.92;49.25
21361;BME280;10839;43.206;23.550;2024-02-23T00:08:53;96747.66;;;12.63;49.75
21361;BME280;10839;43.206;23.550;2024-02-23T00:11:23;96719.78;;;12.69;49.96
21361;BME280;10839;43.206;23.550;2024-02-23T00:13:49;96709.03;;;12.87;49.47
21361;BME280;10839;43.206;23.550;2024-02-23T00:16:14;96733.03;;;12.77;49.03
21361;BME280;10839;43.206;23.550;2024-02-23T00:18:40;96681.50;;;12.48;49.77
21361;BME280;10839;43.206;23.550;2024-02-23T00:21:05;96721.13;;;12.85;49.59
21361;BME280;10839;43.206;23.550;2024-02-23T00:23:31;96718.97;;;12.94;49.64
21361;BME280;10839;43.206;23.550;2024-02-23T00:25:56;96709.84;;;12.63;50.23
21361;BME280;10839;43.206;23.550;2024-02-23T00:28:22;96699.00;;;12.70;50.14
21361;BME280;10839;43.206;23.550;2024-02-23T00:30:47;96691.69;;;12.77;49.72
21361;BME280;10839;43.206;23.550;2024-02-23T00:33:13;96675.59;;;12.88;49.62
21361;BME280;10839;43.206;23.550;2024-02-23T00:35:39;96694.78;;;12.49;51.00
21361;BME280;10839;43.206;23.550;2024-02-23T00:38:04;96701.94;;;12.68;50.84
21361;BME280;10839;43.206;23.550;2024-02-23T00:40:30;96694.16;;;12.78;50.30
21361;BME280;10839;43.206;23.550;2024-02-23T00:42:55;96693.03;;;12.61;50.83
21361;BME280;10839;43.206;23.550;2024-02-23T00:45:21;96709.69;;;12.58;50.99
21361;BME280;10839;43.206;23.550;2024-02-23T00:47:47;96679.28;;;12.69;50.60
21361;BME280;10839;43.206;23.550;2024-02-23T00:50:13;96680.00;;;12.83;50.48
21361;BME280;10839;43.206;23.550;2024-02-23T00:52:39;96680.53;;;12.42;51.99
21361;BME280;10839;43.206;23.550;2024-02-23T00:55:05;96679.03;;;12.46;52.75
21361;BME280;10839;43.206;23.550;2024-02-23T00:57:30;96659.47;;;12.57;52.39
21361;BME280;10839;43.206;23.550;2024-02-23T00:59:57;96692.25;;;12.54;52.43
21361;BME280;10839;43.206;23.550;2024-02-23T01:02:22;96682.88;;;12.32;53.70
21361;BME280;10839;43.206;23.550;2024-02-23T01:04:48;96676.50;;;12.51;53.81
21361;BME280;10839;43.206;23.550;2024-02-23T01:07:16;96659.97;;;12.41;54.30
21361;BME280;10839;43.206;23.550;2024-02-23T01:09:42;96670.91;;;12.22;53.53
21361;BME280;10839;43.206;23.550;2024-02-23T01:12:07;96658.69;;;12.19;55.29
21361;BME280;10839;43.206;23.550;2024-02-23T01:14:34;96657.09;;;12.36;55.62
21361;BME280;10839;43.206;23.550;2024-02-23T01:16:59;96664.59;;;12.34;55.23
21361;BME280;10839;43.206;23.550;2024-02-23T01:19:25;96646.94;;;12.07;56.74
21361;BME280;10839;43.206;23.550;2024-02-23T01:21:50;96629.34;;;12.29;55.73
21361;BME280;10839;43.206;23.550;2024-02-23T01:24:24;96633.16;;;12.46;56.00
21361;BME280;10839;43.206;23.550;2024-02-23T01:26:51;96635.41;;;12.25;56.69
21361;BME280;10839;43.206;23.550;2024-02-23T01:29:16;96641.91;;;12.17;56.71
21361;BME280;10839;43.206;23.550;2024-02-23T01:31:42;96644.22;;;12.38;55.75
21361;BME280;10839;43.206;23.550;2024-02-23T01:34:07;96659.53;;;12.44;54.83
21361;BME280;10839;43.206;23.550;2024-02-23T01:36:33;96686.25;;;12.21;56.75
21361;BME280;10839;43.206;23.550;2024-02-23T01:38:58;96633.53;;;12.25;55.39
21361;BME280;10839;43.206;23.550;2024-02-23T01:41:24;96684.97;;;12.30;55.87
21361;BME280;10839;43.206;23.550;2024-02-23T01:43:49;96697.41;;;12.31;55.70
21361;BME280;10839;43.206;23.550;2024-02-23T01:46:16;96663.47;;;12.17;54.68
21361;BME280;10839;43.206;23.550;2024-02-23T01:48:45;96626.78;;;12.41;53.86
21361;BME280;10839;43.206;23.550;2024-02-23T01:51:11;96662.03;;;12.46;55.59
21361;BME280;10839;43.206;23.550;2024-02-23T01:53:38;96681.03;;;12.26;56.34
21361;BME280;10839;43.206;23.550;2024-02-23T01:56:04;96635.97;;;12.33;56.93
21361;BME280;10839;43.206;23.550;2024-02-23T01:58:30;96611.84;;;12.38;56.34
21361;BME280;10839;43.206;23.550;2024-02-23T02:00:57;96620.13;;;12.43;55.59
21361;BME280;10839;43.206;23.550;2024-02-23T02:03:23;96611.44;;;12.10;56.83
21361;BME280;10839;43.206;23.550;2024-02-23T02:05:48;96635.97;;;12.33;57.53
21361;BME280;10839;43.206;23.550;2024-02-23T02:08:15;96625.97;;;12.40;55.00
21361;BME280;10839;43.206;23.550;2024-02-23T02:10:42;96619.34;;;12.36;55.80
21361;BME280;10839;43.206;23.550;2024-02-23T02:13:08;96639.16;;;12.24;57.47
21361;BME280;10839;43.206;23.550;2024-02-23T02:15:34;96634.66;;;12.42;57.38
21361;BME280;10839;43.206;23.550;2024-02-23T02:17:59;96654.13;;;12.44;57.46
21361;BME280;10839;43.206;23.550;2024-02-23T02:20:25;96652.84;;;12.22;57.60
21361;BME280;10839;43.206;23.550;2024-02-23T02:22:53;96648.09;;;12.18;57.90
21361;BME280;10839;43.206;23.550;2024-02-23T02:25:19;96652.50;;;12.43;56.32
21361;BME280;10839;43.206;23.550;2024-02-23T02:27:45;96667.03;;;12.42;56.50
21361;BME280;10839;43.206;23.550;2024-02-23T02:30:12;96631.56;;;12.14;55.93
21361;BME280;10839;43.206;23.550;2024-02-23T02:32:38;96644.91;;;12.34;55.52
21361;BME280;10839;43.206;23.550;2024-02-23T02:35:04;96661.81;;;12.47;53.47
21361;BME280;10839;43.206;23.550;2024-02-23T02:37:29;96671.13;;;12.51;53.18
21361;BME280;10839;43.206;23.550;2024-02-23T02:39:55;96688.31;;;12.26;54.20
21361;BME280;10839;43.206;23.550;2024-02-23T02:42:20;96674.03;;;12.50;54.87
21361;BME280;10839;43.206;23.550;2024-02-23T02:44:46;96671.44;;;12.37;55.86
21361;BME280;10839;43.206;23.550;2024-02-23T02:47:11;96693.16;;;12.48;55.31
21361;BME280;10839;43.206;23.550;2024-02-23T02:49:39;96704.06;;;12.29;54.71
21361;BME280;10839;43.206;23.550;2024-02-23T02:52:05;96702.88;;;12.18;55.15
21361;BME280;10839;43.206;23.550;2024-02-23T02:54:31;96678.72;;;12.30;56.08
21361;BME280;10839;43.206;23.550;2024-02-23T02:56:57;96711.88;;;12.06;57.42
21361;BME280;10839;43.206;23.550;2024-02-23T02:59:23;96721.94;;;12.23;56.83
21361;BME280;10839;43.206;23.550;2024-02-23T03:01:48;96709.44;;;12.35;56.16
21361;BME280;10839;43.206;23.550;2024-02-23T03:04:14;96707.03;;;12.21;56.63
21361;BME280;10839;43.206;23.550;2024-02-23T03:06:40;96722.88;;;12.04;57.80
21361;BME280;10839;43.206;23.550;2024-02-23T03:09:05;96725.94;;;12.14;57.71
21361;BME280;10839;43.206;23.550;2024-02-23T03:11:32;96737.94;;;12.18;56.34
21361;BME280;10839;43.206;23.550;2024-02-23T03:13:58;96719.94;;;12.12;56.57
21361;BME280;10839;43.206;23.550;2024-02-23T03:16:23;96712.66;;;12.13;56.90
21361;BME280;10839;43.206;23.550;2024-02-23T03:18:52;96718.22;;;12.24;55.92
21361;BME280;10839;43.206;23.550;2024-02-23T03:21:19;96716.53;;;12.23;55.81
21361;BME280;10839;43.206;23.550;2024-02-23T03:23:45;96726.53;;;12.16;56.61
21361;BME280;10839;43.206;23.550;2024-02-23T03:26:10;96734.03;;;12.14;56.41
21361;BME280;10839;43.206;23.550;2024-02-23T03:28:36;96722.34;;;12.27;54.93
21361;BME280;10839;43.206;23.550;2024-02-23T03:31:01;96720.38;;;12.09;56.17
21361;BME280;10839;43.206;23.550;2024-02-23T03:33:27;96727.25;;;12.36;54.82
21361;BME280;10839;43.206;23.550;2024-02-23T03:35:52;96732.69;;;12.30;55.48
21361;BME280;10839;43.206;23.550;2024-02-23T03:38:18;96737.31;;;12.16;55.92
21361;BME280;10839;43.206;23.550;2024-02-23T03:40:44;96728.16;;;12.24;56.44
21361;BME280;10839;43.206;23.550;2024-02-23T03:43:09;96709.06;;;12.25;53.96
21361;BME280;10839;43.206;23.550;2024-02-23T03:45:35;96718.13;;;12.37;54.10
21361;BME280;10839;43.206;23.550;2024-02-23T03:48:03;96711.16;;;12.23;54.80
21361;BME280;10839;43.206;23.550;2024-02-23T03:50:29;96729.34;;;12.34;55.62
21361;BME280;10839;43.206;23.550;2024-02-23T03:52:55;96735.16;;;12.31;55.65
21361;BME280;10839;43.206;23.550;2024-02-23T03:55:20;96727.69;;;12.33;53.97
21361;BME280;10839;43.206;23.550;2024-02-23T03:57:47;96726.97;;;12.13;53.91
21361;BME280;10839;43.206;23.550;2024-02-23T04:00:13;96718.63;;;12.21;55.05
21361;BME280;10839;43.206;23.550;2024-02-23T04:02:40;96709.69;;;12.27;54.59
21361;BME280;10839;43.206;23.550;2024-02-23T04:05:06;96730.28;;;12.15;54.74
21361;BME280;10839;43.206;23.550;2024-02-23T04:07:32;96719.50;;;12.15;55.30
21361;BME280;10839;43.206;23.550;2024-02-23T04:09:58;96714.81;;;12.35;54.81
21361;BME280;10839;43.206;23.550;2024-02-23T04:12:24;96726.81;;;12.46;54.61
21361;BME280;10839;43.206;23.550;2024-02-23T04:14:49;96723.72;;;11.98;54.85
21361;BME280;10839;43.206;23.550;2024-02-23T04:17:16;96732.22;;;11.95;55.34
21361;BME280;10839;43.206;23.550;2024-02-23T04:19:42;96723.25;;;12.14;55.50
21361;BME280;10839;43.206;23.550;2024-02-23T04:22:09;96724.44;;;12.18;56.06
21361;BME280;10839;43.206;23.550;2024-02-23T04:24:39;96728.31;;;11.91;57.32
21361;BME280;10839;43.206;23.550;2024-02-23T04:27:05;96715.63;;;11.98;56.29
21361;BME280;10839;43.206;23.550;2024-02-23T04:29:31;96711.00;;;12.12;55.24
21361;BME280;10839;43.206;23.550;2024-02-23T04:31:58;96726.59;;;12.03;57.29
21361;BME280;10839;43.206;23.550;2024-02-23T04:34:23;96722.94;;;11.85;57.94
21361;BME280;10839;43.206;23.550;2024-02-23T04:36:49;96740.06;;;12.03;57.18
21361;BME280;10839;43.206;23.550;2024-02-23T04:39:14;96718.31;;;11.98;57.36
21361;BME280;10839;43.206;23.550;2024-02-23T04:41:40;96720.81;;;11.93;57.09
21361;BME280;10839;43.206;23.550;2024-02-23T04:44:05;96718.78;;;11.89;56.98
21361;BME280;10839;43.206;23.550;2024-02-23T04:46:31;96727.47;;;11.97;56.73
21361;BME280;10839;43.206;23.550;2024-02-23T04:48:57;96713.78;;;11.92;56.46
21361;BME280;10839;43.206;23.550;2024-02-23T04:51:22;96704.34;;;11.70;59.03
21361;BME280;10839;43.206;23.550;2024-02-23T04:53:49;96701.81;;;11.75;59.29
21361;BME280;10839;43.206;23.550;2024-02-23T04:56:15;96698.84;;;11.90;58.80
21361;BME280;10839;43.206;23.550;2024-02-23T04:58:41;96681.91;;;11.76;58.49
21361;BME280;10839;43.206;23.550;2024-02-23T05:01:09;96679.00;;;11.84;58.32
21361;BME280;10839;43.206;23.550;2024-02-23T05:03:36;96695.53;;;11.94;58.10
21361;BME280;10839;43.206;23.550;2024-02-23T05:06:02;96709.25;;;11.93;58.52
21361;BME280;10839;43.206;23.550;2024-02-23T05:08:28;96711.56;;;11.63;60.16
21361;BME280;10839;43.206;23.550;2024-02-23T05:10:58;96698.84;;;11.90;59.48
21361;BME280;10839;43.206;23.550;2024-02-23T05:13:24;96695.53;;;11.94;59.19
21361;BME280;10839;43.206;23.550;2024-02-23T05:15:50;96681.47;;;11.86;58.45
21361;BME280;10839;43.206;23.550;2024-02-23T05:18:15;96722.53;;;11.81;58.74
21361;BME280;10839;43.206;23.550;2024-02-23T05:20:41;96691.72;;;12.08;58.26
21361;BME280;10839;43.206;23.550;2024-02-23T05:23:07;96666.84;;;12.06;58.37
21361;BME280;10839;43.206;23.550;2024-02-23T05:25:34;96680.22;;;11.88;59.23
21361;BME280;10839;43.206;23.550;2024-02-23T05:27:59;96734.44;;;12.11;57.97
21361;BME280;10839;43.206;23.550;2024-02-23T05:30:25;96711.59;;;12.82;55.56
21361;BME280;10839;43.206;23.550;2024-02-23T05:32:52;96685.50;;;13.62;52.69
21361;BME280;10839;43.206;23.550;2024-02-23T05:35:18;96707.75;;;13.64;52.86
21361;BME280;10839;43.206;23.550;2024-02-23T05:37:44;96685.75;;;14.26;51.82
21361;BME280;10839;43.206;23.550;2024-02-23T05:40:09;96685.13;;;14.83;50.03
21361;BME280;10839;43.206;23.550;2024-02-23T05:42:38;96707.06;;;15.16;48.58
21361;BME280;10839;43.206;23.550;2024-02-23T05:45:07;96717.22;;;15.67;46.94
21361;BME280;10839;43.206;23.550;2024-02-23T05:47:35;96693.94;;;16.45;45.44
21361;BME280;10839;43.206;23.550;2024-02-23T05:50:02;96715.38;;;17.20;43.72
21361;BME280;10839;43.206;23.550;2024-02-23T05:52:31;96703.59;;;17.14;43.15
21361;BME280;10839;43.206;23.550;2024-02-23T05:54:56;96708.03;;;16.59;45.16
21361;BME280;10839;43.206;23.550;2024-02-23T05:57:21;96726.91;;;17.10;43.04
21361;BME280;10839;43.206;23.550;2024-02-23T05:59:47;96699.56;;;17.66;41.55
21361;BME280;10839;43.206;23.550;2024-02-23T06:02:13;96719.59;;;17.60;41.89
21361;BME280;10839;43.206;23.550;2024-02-23T06:04:40;96718.19;;;17.41;42.29
21361;BME280;10839;43.206;23.550;2024-02-23T06:07:06;96705.13;;;19.16;39.18
21361;BME280;10839;43.206;23.550;2024-02-23T06:09:31;96713.63;;;19.20;37.89
21361;BME280;10839;43.206;23.550;2024-02-23T06:11:57;96716.00;;;19.74;37.72
21361;BME280;10839;43.206;23.550;2024-02-23T06:14:22;96727.97;;;19.73;37.11
21361;BME280;10839;43.206;23.550;2024-02-23T06:16:49;96704.56;;;19.82;37.04
21361;BME280;10839;43.206;23.550;2024-02-23T06:19:15;96736.53;;;20.28;35.32
21361;BME280;10839;43.206;23.550;2024-02-23T06:21:40;96722.44;;;19.63;36.92
21361;BME280;10839;43.206;23.550;2024-02-23T06:24:06;96729.41;;;19.44;36.31
21361;BME280;10839;43.206;23.550;2024-02-23T06:26:34;96728.59;;;19.80;36.41
21361;BME280;10839;43.206;23.550;2024-02-23T06:29:00;96729.09;;;19.41;35.55
21361;BME280;10839;43.206;23.550;2024-02-23T06:31:26;96732.28;;;19.01;37.56
21361;BME280;10839;43.206;23.550;2024-02-23T06:33:51;96715.97;;;19.06;37.07
21361;BME280;10839;43.206;23.550;2024-02-23T06:36:18;96679.19;;;19.87;35.52
21361;BME280;10839;43.206;23.550;2024-02-23T06:38:46;96731.63;;;19.47;36.03
21361;BME280;10839;43.206;23.550;2024-02-23T06:41:13;96713.19;;;19.64;36.05
21361;BME280;10839;43.206;23.550;2024-02-23T06:43:38;96734.72;;;19.97;35.03
21361;BME280;10839;43.206;23.550;2024-02-23T06:46:06;96738.38;;;20.80;34.21
21361;BME280;10839;43.206;23.550;2024-02-23T06:48:32;96784.16;;;20.38;33.40
21361;BME280;10839;43.206;23.550;2024-02-23T06:50:58;96741.50;;;21.38;32.77
21361;BME280;10839;43.206;23.550;2024-02-23T06:53:23;96752.00;;;20.65;34.24
21361;BME280;10839;43.206;23.550;2024-02-23T06:55:49;96730.28;;;21.25;33.42
21361;BME280;10839;43.206;23.550;2024-02-23T06:58:14;96750.78;;;20.97;33.66
21361;BME280;10839;43.206;23.550;2024-02-23T07:00:42;96723.19;;;21.54;33.22
21361;BME280;10839;43.206;23.550;2024-02-23T07:03:08;96752.69;;;21.07;33.35
21361;BME280;10839;43.206;23.550;2024-02-23T07:05:33;96712.66;;;20.71;33.48
21361;BME280;10839;43.206;23.550;2024-02-23T07:08:01;96754.66;;;21.67;32.76
21361;BME280;10839;43.206;23.550;2024-02-23T07:10:27;96697.41;;;21.05;33.17
21361;BME280;10839;43.206;23.550;2024-02-23T07:12:53;96716.47;;;20.70;32.97
21361;BME280;10839;43.206;23.550;2024-02-23T07:15:21;96717.66;;;19.80;35.06
21361;BME280;10839;43.206;23.550;2024-02-23T07:17:47;96727.63;;;20.06;34.85
21361;BME280;10839;43.206;23.550;2024-02-23T07:20:13;96687.66;;;19.85;34.73
21361;BME280;10839;43.206;23.550;2024-02-23T07:22:39;96708.25;;;20.08;34.59
21361;BME280;10839;43.206;23.550;2024-02-23T07:25:05;96712.91;;;20.07;34.67
21361;BME280;10839;43.206;23.550;2024-02-23T07:27:31;96675.53;;;19.71;34.74
21361;BME280;10839;43.206;23.550;2024-02-23T07:29:57;96688.25;;;18.87;36.22
21361;BME280;10839;43.206;23.550;2024-02-23T07:32:23;96711.84;;;18.77;36.39
21361;BME280;10839;43.206;23.550;2024-02-23T07:34:48;96687.09;;;19.15;36.07
21361;BME280;10839;43.206;23.550;2024-02-23T07:37:15;96707.50;;;19.34;35.76
21361;BME280;10839;43.206;23.550;2024-02-23T07:39:40;96688.75;;;19.43;34.85
21361;BME280;10839;43.206;23.550;2024-02-23T07:42:06;96690.38;;;19.44;35.69
21361;BME280;10839;43.206;23.550;2024-02-23T07:44:33;96689.47;;;19.33;35.62
21361;BME280;10839;43.206;23.550;2024-02-23T07:46:59;96710.50;;;19.06;35.73
21361;BME280;10839;43.206;23.550;2024-02-23T07:49:25;96706.78;;;19.17;35.63
21361;BME280;10839;43.206;23.550;2024-02-23T07:51:53;96707.59;;;19.18;35.21
21361;BME280;10839;43.206;23.550;2024-02-23T07:54:19;96734.06;;;18.64;34.99
21361;BME280;10839;43.206;23.550;2024-02-23T07:56:45;96694.81;;;19.23;34.96
21361;BME280;10839;43.206;23.550;2024-02-23T07:59:10;96728.06;;;19.20;35.02
21361;BME280;10839;43.206;23.550;2024-02-23T08:01:36;96720.78;;;18.99;35.08
21361;BME280;10839;43.206;23.550;2024-02-23T08:04:02;96727.03;;;18.94;34.73
21361;BME280;10839;43.206;23.550;2024-02-23T08:06:28;96731.19;;;19.02;35.17
21361;BME280;10839;43.206;23.550;2024-02-23T08:08:57;96750.22;;;19.55;34.71
21361;BME280;10839;43.206;23.550;2024-02-23T08:11:22;96754.16;;;19.33;34.93
21361;BME280;10839;43.206;23.550;2024-02-23T08:13:48;96760.44;;;19.11;35.79
21361;BME280;10839;43.206;23.550;2024-02-23T08:16:16;96729.44;;;18.91;34.80
21361;BME280;10839;43.206;23.550;2024-02-23T08:18:42;96732.00;;;19.29;34.50
21361;BME280;10839;43.206;23.550;2024-02-23T08:21:10;96738.75;;;18.47;35.85
21361;BME280;10839;43.206;23.550;2024-02-23T08:23:36;96753.81;;;18.76;35.88
21361;BME280;10839;43.206;23.550;2024-02-23T08:26:02;96761.50;;;18.57;36.18
21361;BME280;10839;43.206;23.550;2024-02-23T08:28:27;96719.97;;;18.72;36.27
21361;BME280;10839;43.206;23.550;2024-02-23T08:30:53;96747.97;;;18.89;35.39
21361;BME280;10839;43.206;23.550;2024-02-23T08:33:18;96748.16;;;19.09;35.88
21361;BME280;10839;43.206;23.550;2024-02-23T08:35:44;96736.31;;;18.98;35.10
21361;BME280;10839;43.206;23.550;2024-02-23T08:38:10;96724.34;;;18.73;35.34
21361;BME280;10839;43.206;23.550;2024-02-23T08:40:36;96746.00;;;19.11;35.69
21361;BME280;10839;43.206;23.550;2024-02-23T08:43:02;96751.56;;;18.68;36.27
21361;BME280;10839;43.206;23.550;2024-02-23T08:45:28;96720.06;;;18.82;36.04
21361;BME280;10839;43.206;23.550;2024-02-23T08:47:53;96732.75;;;18.45;36.51
21361;BME280;10839;43.206;23.550;2024-02-23T08:50:19;96705.91;;;17.94;37.09
21361;BME280;10839;43.206;23.550;2024-02-23T08:52:44;96725.81;;;18.16;36.61
21361;BME280;10839;43.206;23.550;2024-02-23T08:55:10;96729.22;;;18.71;36.67
21361;BME280;10839;43.206;23.550;2024-02-23T08:57:37;96712.03;;;18.97;36.02
21361;BME280;10839;43.206;23.550;2024-02-23T09:00:06;96716.28;;;18.83;36.34
21361;BME280;10839;43.206;23.550;2024-02-23T09:02:32;96691.75;;;19.15;36.08
21361;BME280;10839;43.206;23.550;2024-02-23T09:05:01;96720.84;;;19.67;35.40
21361;BME280;10839;43.206;23.550;2024-02-23T09:07:26;96738.28;;;19.61;35.52
21361;BME280;10839;43.206;23.550;2024-02-23T09:09:52;96726.34;;;19.72;35.31
21361;BME280;10839;43.206;23.550;2024-02-23T09:12:18;96728.38;;;19.24;36.07
21361;BME280;10839;43.206;23.550;2024-02-23T09:14:43;96729.47;;;19.49;35.60
21361;BME280;10839;43.206;23.550;2024-02-23T09:17:09;96723.16;;;19.17;35.74
21361;BME280;10839;43.206;23.550;2024-02-23T09:19:36;96733.13;;;19.70;35.44
21361;BME280;10839;43.206;23.550;2024-02-23T09:22:02;96719.31;;;19.45;35.99
21361;BME280;10839;43.206;23.550;2024-02-23T09:24:28;96723.34;;;19.37;35.32
21361;BME280;10839;43.206;23.550;2024-02-23T09:26:54;96721.41;;;19.33;36.02
21361;BME280;10839;43.206;23.550;2024-02-23T09:29:19;96724.09;;;19.01;36.52
21361;BME280;10839;43.206;23.550;2024-02-23T09:31:45;96708.84;;;19.05;36.36
21361;BME280;10839;43.206;23.550;2024-02-23T09:34:11;96735.41;;;19.41;35.95
21361;BME280;10839;43.206;23.550;2024-02-23T09:36:36;96737.03;;;19.42;36.21
21361;BME280;10839;43.206;23.550;2024-02-23T09:39:02;96722.97;;;20.02;35.35
21361;BME280;10839;43.206;23.550;2024-02-23T09:41:30;96729.03;;;19.67;35.86
21361;BME280;10839;43.206;23.550;2024-02-23T09:43:58;96730.66;;;20.62;34.84
21361;BME280;10839;43.206;23.550;2024-02-23T09:46:25;96720.22;;;20.49;35.11
21361;BME280;10839;43.206;23.550;2024-02-23T09:48:51;96726.81;;;20.53;35.02
21361;BME280;10839;43.206;23.550;2024-02-23T09:51:17;96725.97;;;20.52;35.04
21361;BME280;10839;43.206;23.550;2024-02-23T09:53:43;96764.94;;;20.22;35.32
21361;BME280;10839;43.206;23.550;2024-02-23T09:56:10;96731.59;;;20.25;35.15
21361;BME280;10839;43.206;23.550;2024-02-23T09:58:36;96706.16;;;20.20;35.29
21361;BME280;10839;43.206;23.550;2024-02-23T10:01:03;96722.94;;;19.97;35.89
21361;BME280;10839;43.206;23.550;2024-02-23T10:03:30;96738.44;;;19.86;35.76
21361;BME280;10839;43.206;23.550;2024-02-23T10:05:59;96722.16;;;20.53;35.35
21361;BME280;10839;43.206;23.550;2024-02-23T10:08:29;96698.38;;;20.54;34.88
21361;BME280;10839;43.206;23.550;2024-02-23T10:10:56;96724.00;;;19.91;35.47
21361;BME280;10839;43.206;23.550;2024-02-23T10:13:22;96719.03;;;20.19;35.56
21361;BME280;10839;43.206;23.550;2024-02-23T10:15:51;96711.78;;;20.03;35.86
21361;BME280;10839;43.206;23.550;2024-02-23T10:18:17;96706.63;;;20.74;35.05
21361;BME280;10839;43.206;23.550;2024-02-23T10:20:43;96726.84;;;20.63;34.72
21361;BME280;10839;43.206;23.550;2024-02-23T10:23:09;96714.53;;;20.08;35.72
21361;BME280;10839;43.206;23.550;2024-02-23T10:25:35;96733.75;;;20.90;34.56
21361;BME280;10839;43.206;23.550;2024-02-23T10:28:02;96712.16;;;20.94;34.25
21361;BME280;10839;43.206;23.550;2024-02-23T10:30:28;96712.75;;;21.11;33.38
21361;BME280;10839;43.206;23.550;2024-02-23T10:32:56;96729.34;;;20.69;33.85
21361;BME280;10839;43.206;23.550;2024-02-23T10:35:23;96694.44;;;20.24;35.07
21361;BME280;10839;43.206;23.550;2024-02-23T10:37:50;96732.72;;;20.24;34.79
21361;BME280;10839;43.206;23.550;2024-02-23T10:40:17;96728.78;;;20.67;34.24
21361;BME280;10839;43.206;23.550;2024-02-23T10:42:47;96718.00;;;19.89;34.81
21361;BME280;10839;43.206;23.550;2024-02-23T10:45:20;96700.06;;;20.13;35.15
21361;BME280;10839;43.206;23.550;2024-02-23T10:47:50;96724.59;;;20.55;34.74
21361;BME280;10839;43.206;23.550;2024-02-23T10:50:17;96737.31;;;20.91;34.20
21361;BME280;10839;43.206;23.550;2024-02-23T10:52:45;96730.25;;;21.00;34.38
21361;BME280;10839;43.206;23.550;2024-02-23T10:55:11;96725.34;;;19.88;35.20
21361;BME280;10839;43.206;23.550;2024-02-23T10:57:37;96710.75;;;20.14;35.32
21361;BME280;10839;43.206;23.550;2024-02-23T11:00:04;96686.47;;;21.05;34.39
21361;BME280;10839;43.206;23.550;2024-02-23T11:02:55;96707.84;;;21.28;33.37
21361;BME280;10839;43.206;23.550;2024-02-23T11:05:22;96690.31;;;21.19;33.40
21361;BME280;10839;43.206;23.550;2024-02-23T11:07:48;96700.19;;;21.40;33.45
21361;BME280;10839;43.206;23.550;2024-02-23T11:10:17;96714.34;;;20.92;33.77
21361;BME280;10839;43.206;23.550;2024-02-23T11:12:44;96724.44;;;20.14;34.98
21361;BME280;10839;43.206;23.550;2024-02-23T11:15:25;96704.38;;;19.52;36.25
21361;BME280;10839;43.206;23.550;2024-02-23T11:17:51;96715.06;;;20.05;35.30
21361;BME280;10839;43.206;23.550;2024-02-23T11:20:17;96706.22;;;19.88;35.48
21361;BME280;10839;43.206;23.550;2024-02-23T11:22:42;96725.06;;;19.85;35.26
21361;BME280;10839;43.206;23.550;2024-02-23T11:25:08;96689.53;;;20.31;35.08
21361;BME280;10839;43.206;23.550;2024-02-23T11:27:36;96711.13;;;21.50;33.68
21361;BME280;10839;43.206;23.550;2024-02-23T11:30:06;96712.78;;;21.21;33.47
21361;BME280;10839;43.206;23.550;2024-02-23T11:32:40;96722.81;;;20.95;33.63
21361;BME280;10839;43.206;23.550;2024-02-23T11:35:07;96724.59;;;19.93;35.19
21361;BME280;10839;43.206;23.550;2024-02-23T11:40:17;96701.84;;;21.36;33.96
21361;BME280;10839;43.206;23.550;2024-02-23T11:42:43;96701.44;;;22.18;32.90
21361;BME280;10839;43.206;23.550;2024-02-23T11:45:09;96711.88;;;22.21;32.64
21361;BME280;10839;43.206;23.550;2024-02-23T11:47:36;96728.41;;;20.44;34.01
21361;BME280;10839;43.206;23.550;2024-02-23T11:50:02;96714.53;;;20.65;34.60
21361;BME280;10839;43.206;23.550;2024-02-23T11:52:28;96682.75;;;20.39;34.87
21361;BME280;10839;43.206;23.550;2024-02-23T11:54:53;96691.97;;;21.50;33.78
21361;BME280;10839;43.206;23.550;2024-02-23T11:57:21;96687.44;;;22.19;32.81
21361;BME280;10839;43.206;23.550;2024-02-23T11:59:46;96714.41;;;21.32;33.17
21361;BME280;10839;43.206;23.550;2024-02-23T12:02:12;96694.75;;;19.86;35.11
21361;BME280;10839;43.206;23.550;2024-02-23T12:04:38;96693.16;;;19.95;35.41
21361;BME280;10839;43.206;23.550;2024-02-23T12:07:04;96679.31;;;20.79;34.50
21361;BME280;10839;43.206;23.550;2024-02-23T12:09:29;96682.09;;;21.09;34.06
21361;BME280;10839;43.206;23.550;2024-02-23T12:11:55;96675.81;;;21.08;34.36
21361;BME280;10839;43.206;23.550;2024-02-23T12:14:21;96678.69;;;20.57;34.84
21361;BME280;10839;43.206;23.550;2024-02-23T12:16:46;96664.53;;;20.85;34.50
21361;BME280;10839;43.206;23.550;2024-02-23T12:19:12;96684.69;;;20.54;34.75
21361;BME280;10839;43.206;23.550;2024-02-23T12:21:37;96674.19;;;20.20;35.06
21361;BME280;10839;43.206;23.550;2024-02-23T12:24:06;96658.72;;;20.41;35.26
21361;BME280;10839;43.206;23.550;2024-02-23T12:26:33;96673.91;;;19.70;36.22
21361;BME280;10839;43.206;23.550;2024-02-23T12:29:02;96672.75;;;19.56;36.52
21361;BME280;10839;43.206;23.550;2024-02-23T12:31:28;96664.81;;;18.65;38.15
21361;BME280;10839;43.206;23.550;2024-02-23T12:33:57;96666.41;;;19.19;37.71
21361;BME280;10839;43.206;23.550;2024-02-23T12:36:23;96659.38;;;19.28;37.52
21361;BME280;10839;43.206;23.550;2024-02-23T12:38:48;96662.78;;;19.40;37.42
21361;BME280;10839;43.206;23.550;2024-02-23T12:41:14;96685.59;;;19.61;37.37
21361;BME280;10839;43.206;23.550;2024-02-23T12:43:40;96682.78;;;19.92;36.68
21361;BME280;10839;43.206;23.550;2024-02-23T12:46:05;96683.50;;;20.19;35.95
21361;BME280;10839;43.206;23.550;2024-02-23T12:48:33;96672.44;;;19.99;36.19